Time;durP1;ratioP1;P1;durP2;ratioP2;P2;SDS_P1;SDS_P2;PMS_P1;PMS_P2;Temp;Humidity;BMP_temperature;BMP_pressure;BME280_temperature;BME280_humidity;BME280_pressure;Samples;Min_cycle;Max_cycle;Signal;HPM_P1;HPM_P2
2022/07/16 00:02:21;;;;;;;6.20;2.73;;;17.20;99.90;;;;;;5081009;28;20462;-76
2022/07/16 00:04:48;;;;;;;8.13;2.20;;;17.00;99.90;;;;;;5079395;27;20453;-76
2022/07/16 00:07:21;;;;;;;3.60;1.97;;;16.90;99.90;;;;;;5095756;28;20564;-77
2022/07/16 00:09:53;;;;;;;5.90;2.63;;;16.80;99.90;;;;;;5089557;27;20460;-75
2022/07/16 00:12:27;;;;;;;3.30;2.13;;;16.80;99.90;;;;;;5106774;22;20534;-76
2022/07/16 00:15:06;;;;;;;4.23;3.00;;;17.00;99.90;;;;;;5118711;27;21115;-75
2022/07/16 00:17:47;;;;;;;4.27;2.50;;;17.10;99.90;;;;;;5116254;27;20983;-76
2022/07/16 00:20:13;;;;;;;7.40;2.67;;;17.10;99.90;;;;;;5121820;27;20456;-76
2022/07/16 00:22:41;;;;;;;5.43;3.23;;;17.20;99.90;;;;;;5102770;27;20484;-76
2022/07/16 00:25:17;;;;;;;3.23;2.23;;;17.20;99.90;;;;;;5100790;27;20460;-76
2022/07/16 00:27:47;;;;;;;4.57;2.93;;;17.20;99.90;;;;;;5096918;27;20465;-76
2022/07/16 00:30:14;;;;;;;5.97;2.60;;;17.30;99.90;;;;;;5090119;27;20818;-74
2022/07/16 00:32:44;;;;;;;3.60;2.77;;;17.30;99.90;;;;;;5087387;27;21185;-74
2022/07/16 00:35:13;;;;;;;10.57;2.40;;;17.50;99.90;;;;;;5093545;28;20450;-75
2022/07/16 00:37:45;;;;;;;5.97;2.10;;;17.50;99.90;;;;;;5086743;27;20927;-74
2022/07/16 00:40:14;;;;;;;2.23;2.03;;;17.60;99.90;;;;;;5085761;27;20478;-76
2022/07/16 00:42:44;;;;;;;3.70;2.50;;;17.60;99.90;;;;;;5096011;27;20477;-75
2022/07/16 00:45:17;;;;;;;2.77;2.50;;;17.60;99.90;;;;;;5090821;27;20500;-75
2022/07/16 00:47:44;;;;;;;8.93;2.70;;;17.60;99.90;;;;;;5086594;28;20532;-75
2022/07/16 00:50:14;;;;;;;4.30;2.30;;;17.80;99.90;;;;;;5099260;27;20580;-77
2022/07/16 00:52:40;;;;;;;12.03;2.60;;;17.90;99.90;;;;;;5095148;28;20522;-77
2022/07/16 00:55:12;;;;;;;2.73;2.03;;;17.90;99.90;;;;;;5090436;27;20489;-76
2022/07/16 00:57:44;;;;;;;4.80;2.67;;;18.00;99.90;;;;;;5095369;27;20461;-75
2022/07/16 01:00:15;;;;;;;3.17;2.30;;;17.80;99.90;;;;;;5094191;28;20545;-77
2022/07/16 01:02:45;;;;;;;2.83;2.40;;;17.90;99.90;;;;;;5084037;28;20474;-75
2022/07/16 01:05:14;;;;;;;2.50;2.23;;;17.90;99.90;;;;;;5094268;28;20565;-76
2022/07/16 01:07:42;;;;;;;7.07;2.73;;;17.80;99.90;;;;;;5087458;28;20535;-75
2022/07/16 01:10:14;;;;;;;3.30;2.00;;;17.90;99.90;;;;;;5074944;28;20475;-75
2022/07/16 01:12:46;;;;;;;3.00;2.23;;;17.90;99.90;;;;;;5096835;27;20492;-74
2022/07/16 01:15:13;;;;;;;5.03;2.37;;;18.00;99.90;;;;;;5094872;27;20802;-74
2022/07/16 01:17:43;;;;;;;5.07;2.50;;;18.00;99.90;;;;;;5097126;27;20495;-76
2022/07/16 01:20:14;;;;;;;4.67;2.53;;;18.10;99.90;;;;;;5098201;27;20521;-74
2022/07/16 01:22:41;;;;;;;3.60;2.30;;;18.10;99.90;;;;;;5089498;27;20564;-75
2022/07/16 01:25:26;;;;;;;2.60;2.30;;;18.20;99.90;;;;;;5081706;27;21105;-76
2022/07/16 01:27:57;;;;;;;8.00;3.50;;;18.10;99.90;;;;;;5093971;27;20535;-76
2022/07/16 01:30:29;;;;;;;10.40;3.70;;;18.20;99.90;;;;;;5090954;27;21422;-76
2022/07/16 01:32:55;;;;;;;6.50;2.70;;;18.10;99.90;;;;;;5090392;27;20546;-76
2022/07/16 01:35:28;;;;;;;3.40;3.00;;;18.20;99.90;;;;;;5089268;28;20470;-75
2022/07/16 01:37:58;;;;;;;7.17;2.50;;;18.30;99.90;;;;;;5094527;27;20556;-76
2022/07/16 01:40:27;;;;;;;3.37;2.63;;;18.40;99.90;;;;;;5093747;27;20477;-75
2022/07/16 01:42:57;;;;;;;3.77;2.77;;;18.40;99.90;;;;;;5096289;27;20581;-76
2022/07/16 01:45:30;;;;;;;2.53;2.17;;;18.30;99.90;;;;;;5093564;27;20477;-76
2022/07/16 01:48:01;;;;;;;5.63;2.90;;;18.20;99.90;;;;;;5098357;27;20953;-76
2022/07/16 01:50:28;;;;;;;5.30;2.80;;;18.30;99.90;;;;;;5093407;28;20475;-76
2022/07/16 01:52:57;;;;;;;2.97;2.43;;;18.40;99.90;;;;;;5089014;28;20803;-75
2022/07/16 01:55:24;;;;;;;2.90;2.60;;;18.40;99.90;;;;;;5093691;27;20465;-75
2022/07/16 01:57:52;;;;;;;5.17;2.33;;;18.40;99.90;;;;;;5096659;27;20553;-76
2022/07/16 02:00:19;;;;;;;3.90;2.60;;;18.20;99.90;;;;;;5092276;28;20470;-76
2022/07/16 02:02:46;;;;;;;5.20;2.93;;;18.30;99.90;;;;;;5100764;27;20486;-76
2022/07/16 02:05:13;;;;;;;3.80;3.00;;;18.40;99.90;;;;;;5093141;27;20457;-75
2022/07/16 02:07:44;;;;;;;3.97;2.97;;;18.40;99.90;;;;;;5093627;27;20473;-76
2022/07/16 02:10:15;;;;;;;3.53;2.53;;;18.40;99.90;;;;;;5090646;28;20545;-74
2022/07/16 02:12:42;;;;;;;7.30;3.67;;;18.40;99.90;;;;;;5093342;27;21076;-74
2022/07/16 02:15:11;;;;;;;5.33;2.70;;;18.50;99.90;;;;;;5095510;27;20461;-75
2022/07/16 02:17:41;;;;;;;2.70;2.37;;;18.60;99.90;;;;;;5095838;28;20453;-75
2022/07/16 02:20:11;;;;;;;7.87;2.80;;;18.70;99.90;;;;;;5091629;27;21025;-75
2022/07/16 02:22:41;;;;;;;3.50;2.83;;;18.70;99.90;;;;;;5092972;28;20542;-75
2022/07/16 02:25:12;;;;;;;3.23;2.93;;;18.70;99.90;;;;;;5091832;28;20461;-76
2022/07/16 02:28:05;;;;;;;4.80;3.23;;;18.60;99.90;;;;;;5088308;28;20605;-76
2022/07/16 02:30:33;;;;;;;3.10;2.60;;;18.80;99.90;;;;;;5085368;28;20466;-75
2022/07/16 02:33:06;;;;;;;3.63;3.33;;;18.70;99.90;;;;;;5089929;28;20508;-75
2022/07/16 02:35:33;;;;;;;3.67;3.07;;;18.80;99.90;;;;;;5086044;28;20549;-76
2022/07/16 02:38:01;;;;;;;2.90;2.63;;;18.60;99.90;;;;;;5088574;27;20448;-76
2022/07/16 02:40:33;;;;;;;5.33;3.20;;;18.60;99.90;;;;;;5093525;28;20469;-75
2022/07/16 02:43:06;;;;;;;2.40;2.20;;;18.50;99.90;;;;;;5091786;28;20481;-75
2022/07/16 02:45:37;;;;;;;8.07;3.23;;;18.50;99.90;;;;;;5099494;22;20506;-72
2022/07/16 02:48:05;;;;;;;5.23;2.70;;;18.30;99.90;;;;;;5070434;28;21156;-72
2022/07/16 02:50:32;;;;;;;4.10;2.87;;;18.50;99.90;;;;;;5076121;28;20831;-72
2022/07/16 02:52:59;;;;;;;4.13;2.60;;;18.40;99.90;;;;;;5073836;28;20482;-72
2022/07/16 02:55:26;;;;;;;5.33;3.30;;;18.40;99.90;;;;;;5057380;28;20479;-72
2022/07/16 02:57:53;;;;;;;3.67;2.23;;;18.40;99.90;;;;;;5047724;28;20464;-72
2022/07/16 03:00:20;;;;;;;2.63;2.20;;;18.30;99.90;;;;;;5053887;28;20909;-72
2022/07/16 03:02:49;;;;;;;6.20;2.90;;;18.40;99.90;;;;;;5055633;28;21395;-71
2022/07/16 03:05:16;;;;;;;2.70;2.47;;;18.50;99.90;;;;;;5057932;28;20485;-71
2022/07/16 03:07:43;;;;;;;3.97;3.57;;;18.50;99.90;;;;;;5051263;28;20474;-71
2022/07/16 03:10:11;;;;;;;4.90;2.57;;;18.40;99.90;;;;;;5055131;28;20908;-71
2022/07/16 03:12:39;;;;;;;2.60;2.10;;;18.50;99.90;;;;;;5052752;28;20456;-71
2022/07/16 03:15:07;;;;;;;2.93;2.27;;;18.40;99.90;;;;;;5055509;28;20496;-72
2022/07/16 03:17:34;;;;;;;2.50;2.00;;;18.30;99.90;;;;;;5051716;28;20516;-72
2022/07/16 03:20:02;;;;;;;4.03;3.10;;;18.40;99.90;;;;;;5054619;28;20470;-72
2022/07/16 03:22:29;;;;;;;3.30;2.00;;;18.40;99.90;;;;;;5052416;28;20455;-71
2022/07/16 03:24:56;;;;;;;3.70;2.37;;;18.20;99.90;;;;;;5049754;28;20490;-71
2022/07/16 03:27:23;;;;;;;2.70;2.07;;;18.30;99.90;;;;;;5055433;28;20477;-71
2022/07/16 03:29:50;;;;;;;3.40;2.80;;;18.30;99.90;;;;;;5054841;28;20477;-71
2022/07/16 03:32:17;;;;;;;4.40;2.50;;;18.10;99.90;;;;;;5055755;28;20995;-71
2022/07/16 03:34:44;;;;;;;3.03;2.73;;;18.30;99.90;;;;;;5053440;28;22212;-71
2022/07/16 03:37:12;;;;;;;6.87;2.80;;;18.30;99.90;;;;;;5050720;28;20481;-71
2022/07/16 03:39:39;;;;;;;4.57;2.97;;;18.30;99.90;;;;;;5049263;28;20459;-70
2022/07/16 03:42:06;;;;;;;2.87;2.23;;;18.20;99.90;;;;;;5056810;28;20455;-71
2022/07/16 03:44:34;;;;;;;3.57;2.90;;;18.20;99.90;;;;;;5052493;28;20483;-72
2022/07/16 03:47:01;;;;;;;5.23;2.53;;;18.20;99.90;;;;;;5053979;28;20455;-72
2022/07/16 03:49:49;;;;;;;2.30;2.10;;;18.20;99.90;;;;;;5053656;28;20463;-71
2022/07/16 03:52:17;;;;;;;4.30;2.27;;;18.20;99.90;;;;;;5056179;28;23921;-71
2022/07/16 03:54:44;;;;;;;5.50;3.20;;;18.20;99.90;;;;;;5056736;28;20474;-70
2022/07/16 03:57:11;;;;;;;5.10;2.50;;;18.30;99.90;;;;;;5056599;28;20477;-71
2022/07/16 03:59:38;;;;;;;2.70;2.00;;;18.50;99.90;;;;;;5047934;28;20901;-71
2022/07/16 04:02:04;;;;;;;7.23;2.67;;;18.50;99.90;;;;;;5053704;28;20463;-71
2022/07/16 04:04:31;;;;;;;2.33;2.13;;;18.40;99.90;;;;;;5049194;28;20471;-70
2022/07/16 04:06:58;;;;;;;3.00;2.70;;;18.40;99.90;;;;;;5057448;28;20457;-71
2022/07/16 04:09:26;;;;;;;2.50;2.30;;;18.20;99.90;;;;;;5051160;28;20460;-71
2022/07/16 04:11:55;;;;;;;7.00;5.07;;;18.30;99.90;;;;;;5049931;28;20464;-70
2022/07/16 04:14:22;;;;;;;3.57;2.13;;;18.30;99.90;;;;;;5050622;28;20483;-70
2022/07/16 04:16:49;;;;;;;2.83;2.53;;;18.50;99.90;;;;;;5052811;28;20472;-71
2022/07/16 04:19:15;;;;;;;3.00;2.40;;;18.50;99.90;;;;;;5056179;28;20463;-71
2022/07/16 04:21:42;;;;;;;3.30;2.97;;;18.70;99.90;;;;;;5055555;28;20462;-71
2022/07/16 04:24:09;;;;;;;5.17;2.37;;;18.60;99.90;;;;;;5060079;28;20447;-71
2022/07/16 04:26:37;;;;;;;3.30;1.90;;;18.50;99.90;;;;;;5051007;28;20471;-71
2022/07/16 04:29:04;;;;;;;3.80;2.00;;;18.40;99.90;;;;;;5053118;28;20451;-71
2022/07/16 04:31:31;;;;;;;4.33;2.33;;;18.50;99.90;;;;;;5046210;28;20902;-71
2022/07/16 04:33:58;;;;;;;3.37;2.30;;;18.50;99.90;;;;;;5056392;28;20491;-71
2022/07/16 04:36:25;;;;;;;5.60;2.10;;;18.60;99.90;;;;;;5055257;28;20818;-71
2022/07/16 04:38:51;;;;;;;3.40;2.33;;;18.40;99.90;;;;;;5056546;28;20536;-71
2022/07/16 04:41:18;;;;;;;2.80;2.27;;;18.50;99.90;;;;;;5054020;28;20467;-70
2022/07/16 04:43:47;;;;;;;3.00;1.90;;;18.50;99.90;;;;;;5058597;28;20517;-70
2022/07/16 04:46:13;;;;;;;1.73;1.57;;;18.50;99.90;;;;;;5053192;28;20848;-70
2022/07/16 04:48:41;;;;;;;2.93;1.83;;;18.40;99.90;;;;;;5053570;28;20841;-71
2022/07/16 04:51:08;;;;;;;8.17;2.73;;;18.40;99.90;;;;;;5051396;28;20487;-70
2022/07/16 04:53:36;;;;;;;2.33;1.60;;;18.50;99.90;;;;;;5048685;28;20563;-71
2022/07/16 04:56:03;;;;;;;5.27;1.83;;;18.40;99.90;;;;;;5050748;28;20483;-71
2022/07/16 04:58:29;;;;;;;5.50;1.90;;;18.40;99.90;;;;;;5058770;28;21004;-69
2022/07/16 05:00:58;;;;;;;2.70;1.50;;;18.50;99.90;;;;;;5059511;28;20562;-69
2022/07/16 05:03:24;;;;;;;3.00;2.17;;;18.60;99.90;;;;;;5056511;28;20452;-70
2022/07/16 05:05:51;;;;;;;2.80;2.17;;;18.70;99.90;;;;;;5062413;28;20539;-72
2022/07/16 05:08:18;;;;;;;2.27;1.80;;;18.50;99.90;;;;;;5059562;28;20463;-70
2022/07/16 05:10:45;;;;;;;3.70;2.10;;;18.60;99.90;;;;;;5061872;28;20439;-71
2022/07/16 05:13:12;;;;;;;2.13;1.63;;;18.70;99.90;;;;;;5061244;28;20463;-71
2022/07/16 05:15:39;;;;;;;3.77;1.73;;;18.70;99.90;;;;;;5062777;28;20578;-71
2022/07/16 05:18:08;;;;;;;3.97;2.00;;;18.70;99.90;;;;;;5058292;28;20463;-71
2022/07/16 05:20:35;;;;;;;2.20;2.00;;;18.80;99.90;;;;;;5052255;28;21077;-71
2022/07/16 05:23:03;;;;;;;4.23;2.37;;;18.80;99.90;;;;;;5058984;28;20413;-71
2022/07/16 05:25:30;;;;;;;4.23;2.60;;;18.80;99.90;;;;;;5058749;28;20956;-71
2022/07/16 05:27:57;;;;;;;3.27;2.73;;;19.00;99.90;;;;;;5058810;28;20608;-71
2022/07/16 05:30:24;;;;;;;6.67;2.93;;;18.90;99.90;;;;;;5055330;28;20455;-71
2022/07/16 05:32:51;;;;;;;3.33;2.80;;;18.90;99.90;;;;;;5061452;28;20442;-71
2022/07/16 05:35:19;;;;;;;5.83;3.03;;;19.00;99.90;;;;;;5057668;28;20490;-70
2022/07/16 05:37:46;;;;;;;4.23;2.50;;;19.10;99.90;;;;;;5061386;28;20443;-71
2022/07/16 05:40:14;;;;;;;4.77;3.23;;;19.10;99.90;;;;;;5057994;28;20538;-71
2022/07/16 05:42:41;;;;;;;5.77;2.70;;;19.40;99.90;;;;;;5055859;28;20464;-70
2022/07/16 05:45:10;;;;;;;4.17;2.93;;;19.70;99.90;;;;;;5050070;28;20603;-71
2022/07/16 05:47:36;;;;;;;5.13;2.27;;;19.70;99.90;;;;;;5052038;28;20470;-71
2022/07/16 05:50:04;;;;;;;4.27;2.80;;;19.70;99.90;;;;;;5046217;28;20478;-71
2022/07/16 05:52:33;;;;;;;5.90;3.30;;;19.70;99.90;;;;;;5052284;28;20456;-71
2022/07/16 05:55:00;;;;;;;3.63;2.97;;;19.60;99.90;;;;;;5048215;28;20483;-70
2022/07/16 05:57:26;;;;;;;3.40;2.20;;;19.50;99.90;;;;;;5048862;28;20476;-71
2022/07/16 05:59:53;;;;;;;5.43;2.70;;;19.50;99.90;;;;;;5046089;28;21014;-70
2022/07/16 06:02:20;;;;;;;3.20;2.70;;;19.60;99.90;;;;;;5046783;28;20471;-71
2022/07/16 06:04:47;;;;;;;5.07;3.27;;;19.60;99.90;;;;;;5039614;28;20494;-71
2022/07/16 06:07:14;;;;;;;6.93;3.23;;;19.40;99.90;;;;;;5052685;28;20466;-70
2022/07/16 06:09:43;;;;;;;3.57;2.93;;;19.40;99.90;;;;;;5052167;28;20473;-71
2022/07/16 06:12:10;;;;;;;2.90;2.40;;;19.30;99.90;;;;;;5043535;28;20851;-72
2022/07/16 06:14:37;;;;;;;5.30;2.57;;;19.30;99.90;;;;;;5045164;28;20490;-71
2022/07/16 06:17:04;;;;;;;3.53;2.40;;;19.50;99.90;;;;;;5038396;28;20527;-70
2022/07/16 06:19:31;;;;;;;4.13;2.77;;;19.60;99.90;;;;;;5052368;28;20456;-70
2022/07/16 06:21:58;;;;;;;4.27;2.80;;;19.60;99.90;;;;;;5052997;28;20467;-70
2022/07/16 06:24:25;;;;;;;6.60;2.80;;;19.70;99.90;;;;;;5059024;28;21918;-70
2022/07/16 06:26:53;;;;;;;4.20;2.83;;;19.90;99.90;;;;;;5052390;28;20551;-72
2022/07/16 06:29:20;;;;;;;2.53;2.30;;;20.00;99.90;;;;;;5054543;28;20459;-72
2022/07/16 06:31:46;;;;;;;4.27;2.57;;;20.10;99.90;;;;;;5051120;28;20451;-72
2022/07/16 06:34:13;;;;;;;3.87;2.03;;;20.20;99.90;;;;;;5051729;28;20586;-72
2022/07/16 06:36:40;;;;;;;2.00;1.80;;;20.00;99.90;;;;;;5051045;28;21339;-72
2022/07/16 06:39:07;;;;;;;4.90;1.57;;;19.90;99.90;;;;;;5056333;28;20541;-70
2022/07/16 06:41:36;;;;;;;1.33;1.20;;;19.80;99.90;;;;;;5060902;28;20996;-71
2022/07/16 06:44:05;;;;;;;2.27;2.00;;;19.60;99.90;;;;;;5049868;28;20530;-72
2022/07/16 06:46:32;;;;;;;2.90;1.77;;;19.70;99.90;;;;;;5038512;28;20522;-73
2022/07/16 06:48:59;;;;;;;1.60;1.50;;;19.70;99.90;;;;;;5050206;28;20465;-71
2022/07/16 06:51:26;;;;;;;1.40;1.20;;;19.70;99.90;;;;;;5049859;28;20467;-71
2022/07/16 06:53:53;;;;;;;2.80;1.20;;;19.50;99.90;;;;;;5047304;28;20459;-72
2022/07/16 06:56:20;;;;;;;3.17;1.60;;;19.60;99.90;;;;;;5054174;28;20494;-71
2022/07/16 06:58:47;;;;;;;2.37;1.53;;;19.90;99.90;;;;;;5052134;28;20989;-71
2022/07/16 07:01:15;;;;;;;3.10;1.50;;;20.20;99.90;;;;;;5053999;28;20795;-70
2022/07/16 07:03:42;;;;;;;1.60;1.30;;;20.30;99.90;;;;;;5050950;28;20840;-71
2022/07/16 07:06:09;;;;;;;1.77;1.00;;;20.40;99.90;;;;;;5049079;28;20475;-72
2022/07/16 07:08:36;;;;;;;7.03;1.20;;;20.60;99.90;;;;;;5050047;28;20455;-71
2022/07/16 07:11:04;;;;;;;1.30;1.10;;;20.40;99.90;;;;;;5051787;28;20460;-71
2022/07/16 07:13:31;;;;;;;1.30;1.20;;;20.20;99.90;;;;;;5052121;28;20777;-72
2022/07/16 07:15:58;;;;;;;1.70;1.20;;;20.40;99.90;;;;;;5060122;28;20653;-71
2022/07/16 07:18:26;;;;;;;1.40;1.10;;;20.40;99.90;;;;;;5052362;28;20486;-72
2022/07/16 07:20:53;;;;;;;1.93;1.20;;;20.30;99.90;;;;;;5052997;28;20539;-72
2022/07/16 07:23:20;;;;;;;1.80;1.33;;;20.40;99.90;;;;;;5056881;28;20452;-72
2022/07/16 07:25:47;;;;;;;1.67;1.23;;;20.50;99.90;;;;;;5054214;28;20462;-72
2022/07/16 07:28:14;;;;;;;1.77;1.20;;;20.80;99.90;;;;;;5056703;28;20463;-72
2022/07/16 07:30:41;;;;;;;2.57;1.03;;;21.70;99.90;;;;;;5051672;28;20546;-72
2022/07/16 07:33:08;;;;;;;1.37;1.13;;;22.70;99.90;;;;;;5057838;28;20476;-72
2022/07/16 07:35:37;;;;;;;1.40;1.17;;;23.70;99.90;;;;;;5057477;28;20481;-72
2022/07/16 07:38:04;;;;;;;2.87;1.10;;;24.40;99.90;;;;;;5059654;28;20904;-72
2022/07/16 07:40:31;;;;;;;2.73;1.10;;;24.70;99.90;;;;;;5052895;28;20456;-72
2022/07/16 07:42:59;;;;;;;2.07;0.97;;;24.50;99.90;;;;;;5051885;28;20547;-71
2022/07/16 07:45:26;;;;;;;2.00;1.43;;;24.60;99.90;;;;;;5046438;28;20487;-72
2022/07/16 07:47:53;;;;;;;1.53;1.20;;;24.20;99.90;;;;;;5054027;28;20823;-71
2022/07/16 07:50:20;;;;;;;1.30;1.03;;;23.70;99.90;;;;;;5052489;28;20551;-71
2022/07/16 07:52:49;;;;;;;1.80;1.27;;;23.20;99.90;;;;;;5061913;28;20466;-72
2022/07/16 07:55:16;;;;;;;8.33;1.30;;;23.30;99.90;;;;;;5053659;28;20526;-72
2022/07/16 07:57:43;;;;;;;1.87;1.10;;;22.80;99.90;;;;;;5050397;28;20464;-72
2022/07/16 08:00:10;;;;;;;2.23;1.10;;;22.50;99.90;;;;;;5048374;28;20484;-71
2022/07/16 08:02:37;;;;;;;1.97;1.17;;;21.50;99.90;;;;;;5054463;28;20458;-72
2022/07/16 08:05:05;;;;;;;1.40;1.17;;;21.00;99.90;;;;;;5055294;28;21028;-72
2022/07/16 08:07:31;;;;;;;1.40;1.10;;;21.20;99.90;;;;;;5061815;28;20484;-72
2022/07/16 08:09:59;;;;;;;2.33;1.10;;;21.80;99.90;;;;;;5059727;28;20972;-71
2022/07/16 08:12:26;;;;;;;1.83;1.27;;;22.40;99.90;;;;;;5061760;28;20891;-71
2022/07/16 08:14:53;;;;;;;2.47;1.20;;;23.70;99.90;;;;;;5056991;28;20491;-72
2022/07/16 08:17:20;;;;;;;1.60;1.13;;;24.80;99.90;;;;;;5061242;28;20467;-72
2022/07/16 08:19:47;;;;;;;3.53;1.17;;;25.10;99.90;;;;;;5062015;28;20475;-72
2022/07/16 08:22:14;;;;;;;6.20;1.87;;;24.90;99.40;;;;;;5061004;28;20787;-72
2022/07/16 08:27:27;;;;;;;1.50;1.10;;;26.20;98.10;;;;;;5061200;28;20443;-72
2022/07/16 08:29:53;;;;;;;1.40;1.30;;;26.10;97.80;;;;;;5061433;28;20470;-72
2022/07/16 08:32:20;;;;;;;1.70;1.20;;;26.20;97.30;;;;;;5062317;28;20451;-72
2022/07/16 08:34:47;;;;;;;1.37;1.00;;;25.90;97.80;;;;;;5062005;28;20504;-72
2022/07/16 08:37:14;;;;;;;1.80;1.10;;;24.90;99.50;;;;;;5055404;28;20520;-72
2022/07/16 08:39:43;;;;;;;1.50;1.20;;;24.50;99.70;;;;;;5048551;28;20923;-70
2022/07/16 08:42:11;;;;;;;2.13;1.03;;;24.50;99.90;;;;;;5058166;28;20477;-73
2022/07/16 08:44:41;;;;;;;2.23;1.50;;;24.70;98.70;;;;;;5055088;28;20795;-72
2022/07/16 08:47:10;;;;;;;20.37;2.00;;;25.60;98.60;;;;;;5049330;28;20520;-72
2022/07/16 08:49:38;;;;;;;1.63;1.17;;;26.00;97.00;;;;;;5061614;28;20445;-72
2022/07/16 08:52:07;;;;;;;2.43;1.00;;;25.60;97.40;;;;;;5060918;28;20940;-72
2022/07/16 08:54:37;;;;;;;1.40;1.30;;;25.80;96.90;;;;;;5052954;28;20570;-71
2022/07/16 08:57:04;;;;;;;1.77;1.13;;;25.20;97.20;;;;;;5056861;28;20455;-71
2022/07/16 08:59:31;;;;;;;1.40;1.30;;;24.10;97.80;;;;;;5054141;28;20938;-71
2022/07/16 09:01:59;;;;;;;1.80;1.00;;;24.80;96.90;;;;;;5052137;28;23548;-71
2022/07/16 09:04:26;;;;;;;1.50;1.20;;;25.30;95.40;;;;;;5057459;28;20481;-72
2022/07/16 09:06:53;;;;;;;3.20;1.20;;;25.50;95.30;;;;;;5054609;28;20541;-72
2022/07/16 09:09:20;;;;;;;2.80;1.20;;;26.00;94.30;;;;;;5056836;28;20456;-72
2022/07/16 09:11:47;;;;;;;1.50;1.00;;;26.50;94.40;;;;;;5060347;28;20557;-72
2022/07/16 09:14:16;;;;;;;3.00;1.23;;;27.10;93.20;;;;;;5050280;28;20466;-72
2022/07/16 09:16:45;;;;;;;3.83;1.10;;;26.40;92.50;;;;;;5057350;28;20713;-71
2022/07/16 09:19:15;;;;;;;2.80;1.10;;;26.30;93.60;;;;;;5057419;28;20486;-71
2022/07/16 09:22:01;;;;;;;2.40;1.30;;;26.10;91.60;;;;;;5060923;28;20561;-71
2022/07/16 09:24:33;;;;;;;1.60;1.13;;;24.60;92.80;;;;;;5051818;28;21282;-72
2022/07/16 09:27:21;;;;;;;1.40;1.00;;;25.40;93.20;;;;;;5072227;22;20764;-75
2022/07/16 09:29:51;;;;;;;1.60;1.30;;;26.60;91.20;;;;;;5095448;27;20537;-76
2022/07/16 09:32:30;;;;;;;1.63;1.27;;;26.80;91.40;;;;;;5103907;28;20882;-76
2022/07/16 09:35:10;;;;;;;1.77;1.27;;;27.50;90.30;;;;;;5102139;27;21012;-73
2022/07/16 09:37:48;;;;;;;2.87;1.57;;;26.80;89.70;;;;;;5100079;28;20876;-75
2022/07/16 09:40:17;;;;;;;2.60;1.20;;;25.60;91.00;;;;;;5100841;28;20534;-74
2022/07/16 09:42:46;;;;;;;1.70;1.20;;;24.90;92.00;;;;;;5104768;28;20544;-75
2022/07/16 09:45:22;;;;;;;2.73;1.10;;;26.10;91.40;;;;;;5101944;28;20449;-74
2022/07/16 09:47:49;;;;;;;5.03;1.33;;;26.80;88.00;;;;;;5097662;28;20516;-74
2022/07/16 09:50:18;;;;;;;1.40;1.10;;;26.60;85.40;;;;;;5100033;28;20495;-74
2022/07/16 09:52:47;;;;;;;3.43;2.10;;;27.40;85.80;;;;;;5088941;28;20465;-76
2022/07/16 09:55:16;;;;;;;1.80;1.10;;;27.00;84.80;;;;;;5101869;28;20572;-74
2022/07/16 09:57:45;;;;;;;2.50;1.43;;;27.50;83.10;;;;;;5099758;28;20592;-74
2022/07/16 10:00:12;;;;;;;2.33;1.30;;;28.20;81.20;;;;;;5096750;28;20472;-74
2022/07/16 10:02:43;;;;;;;2.20;0.90;;;28.90;78.20;;;;;;5103124;28;20434;-75
2022/07/16 10:05:10;;;;;;;1.47;1.17;;;28.60;76.40;;;;;;5094061;28;20498;-74
2022/07/16 10:07:39;;;;;;;1.50;1.00;;;27.60;79.20;;;;;;5097289;28;20528;-74
2022/07/16 10:10:07;;;;;;;7.07;1.87;;;27.70;81.00;;;;;;5101597;28;20453;-75
2022/07/16 10:12:35;;;;;;;1.87;1.30;;;27.60;78.90;;;;;;5098684;28;20870;-74
2022/07/16 10:15:06;;;;;;;4.07;1.50;;;28.20;78.70;;;;;;5098282;28;21259;-74
2022/07/16 10:17:37;;;;;;;2.60;1.60;;;28.50;77.60;;;;;;5102757;28;20561;-75
2022/07/16 10:20:09;;;;;;;2.90;1.13;;;29.50;73.40;;;;;;5100836;28;20943;-77
2022/07/16 10:22:39;;;;;;;2.07;1.20;;;30.70;71.70;;;;;;5096112;28;20456;-75
2022/07/16 10:25:12;;;;;;;2.73;1.30;;;30.20;69.60;;;;;;5097165;28;20442;-74
2022/07/16 10:27:40;;;;;;;2.10;1.10;;;28.20;73.00;;;;;;5101173;27;20509;-74
2022/07/16 10:30:16;;;;;;;2.60;1.23;;;27.00;75.50;;;;;;5096903;28;20441;-73
2022/07/16 10:33:16;;;;;;;1.87;1.40;;;26.60;78.80;;;;;;5100684;28;20492;-74
2022/07/16 10:35:48;;;;;;;1.87;1.43;;;27.30;77.90;;;;;;5100386;28;22348;-74
2022/07/16 10:38:20;;;;;;;3.20;1.40;;;28.10;76.20;;;;;;5101848;28;20465;-74
2022/07/16 10:40:48;;;;;;;1.30;1.10;;;28.60;72.40;;;;;;5102836;28;20445;-74
2022/07/16 10:43:19;;;;;;;2.90;1.30;;;28.10;74.00;;;;;;5103885;28;20536;-75
2022/07/16 10:45:52;;;;;;;2.37;1.13;;;28.70;72.60;;;;;;5102617;28;20458;-75
2022/07/16 10:48:19;;;;;;;1.67;1.07;;;29.50;72.70;;;;;;5098472;28;20489;-74
2022/07/16 10:51:11;;;;;;;4.10;1.20;;;28.10;71.80;;;;;;5104638;28;20453;-75
2022/07/16 10:54:17;;;;;;;3.67;1.43;;;27.00;74.00;;;;;;5103438;28;20974;-75
2022/07/16 10:56:48;;;;;;;3.00;1.33;;;27.50;74.80;;;;;;5095541;28;20523;-75
2022/07/16 10:59:17;;;;;;;3.23;1.10;;;26.80;74.90;;;;;;5096981;28;20566;-75
2022/07/16 11:01:51;;;;;;;5.00;1.20;;;27.60;77.50;;;;;;5102791;28;20523;-75
2022/07/16 11:04:32;;;;;;;2.73;1.40;;;28.30;73.10;;;;;;5102832;28;20447;-75
2022/07/16 11:07:00;;;;;;;2.80;1.30;;;28.90;73.40;;;;;;5095260;28;20469;-75
2022/07/16 11:09:33;;;;;;;3.00;1.67;;;28.90;71.50;;;;;;5098136;28;20519;-77
2022/07/16 11:12:14;;;;;;;3.83;1.27;;;29.40;67.70;;;;;;5097148;28;20461;-75
2022/07/16 11:14:43;;;;;;;4.57;2.83;;;27.50;71.10;;;;;;5099442;28;20496;-74
2022/07/16 11:17:10;;;;;;;2.30;1.40;;;27.10;71.30;;;;;;5091144;28;20482;-75
2022/07/16 11:19:39;;;;;;;2.40;1.80;;;27.30;71.00;;;;;;5098542;28;20445;-75
2022/07/16 11:22:07;;;;;;;2.07;1.30;;;27.80;69.20;;;;;;5104067;28;20457;-75
2022/07/16 11:24:49;;;;;;;2.47;1.70;;;29.00;67.60;;;;;;5102323;28;20538;-75
2022/07/16 11:27:18;;;;;;;3.47;1.10;;;30.70;63.20;;;;;;5101180;28;20485;-74
2022/07/16 11:29:45;;;;;;;1.50;0.97;;;29.80;62.90;;;;;;5098664;28;20454;-75
2022/07/16 11:32:16;;;;;;;2.10;0.93;;;28.90;63.80;;;;;;5101949;28;20470;-76
2022/07/16 11:34:43;;;;;;;1.73;1.10;;;29.10;60.70;;;;;;5090848;28;20455;-75
2022/07/16 11:37:10;;;;;;;10.00;1.40;;;29.60;60.30;;;;;;5099192;28;20486;-75
2022/07/16 11:39:38;;;;;;;2.97;1.70;;;30.30;60.00;;;;;;5097159;28;20458;-76
2022/07/16 11:42:05;;;;;;;2.60;1.30;;;31.00;58.50;;;;;;5099945;28;20445;-74
2022/07/16 11:44:35;;;;;;;1.30;0.87;;;30.20;58.30;;;;;;5102674;28;20449;-73
2022/07/16 11:47:04;;;;;;;3.90;1.57;;;29.40;59.20;;;;;;5101927;28;20489;-77
2022/07/16 11:49:32;;;;;;;2.03;1.10;;;29.50;59.50;;;;;;5093613;28;20463;-74
2022/07/16 11:52:00;;;;;;;2.87;1.10;;;29.80;58.30;;;;;;5091391;28;20458;-75
2022/07/16 11:54:28;;;;;;;1.50;1.00;;;30.30;58.00;;;;;;5096020;28;20469;-75
2022/07/16 11:56:57;;;;;;;2.00;1.03;;;30.80;56.20;;;;;;5099758;28;20771;-75
2022/07/16 11:59:25;;;;;;;2.50;1.00;;;31.10;54.90;;;;;;5104966;27;20978;-74
2022/07/16 12:02:01;;;;;;;4.23;1.93;;;30.50;55.40;;;;;;5103796;28;20468;-74
2022/07/16 12:04:37;;;;;;;2.00;1.33;;;30.50;57.20;;;;;;5103927;28;20468;-75
2022/07/16 12:07:05;;;;;;;4.43;1.30;;;31.10;55.30;;;;;;5103799;28;20484;-75
2022/07/16 12:09:33;;;;;;;1.30;0.90;;;31.30;55.10;;;;;;5103808;28;20971;-74
2022/07/16 12:12:04;;;;;;;1.20;0.90;;;31.40;54.30;;;;;;5097085;27;20455;-77
2022/07/16 12:14:49;;;;;;;2.27;1.13;;;31.20;53.00;;;;;;5101495;28;20464;-75
2022/07/16 12:17:25;;;;;;;3.93;1.13;;;31.00;54.10;;;;;;5100901;28;20494;-74
2022/07/16 12:20:08;;;;;;;1.90;1.27;;;30.80;54.90;;;;;;5095013;28;20882;-75
2022/07/16 12:22:55;;;;;;;1.50;1.00;;;31.10;54.60;;;;;;5100609;28;20466;-75
2022/07/16 12:25:28;;;;;;;1.13;0.80;;;30.40;55.10;;;;;;5095006;28;21018;-75
2022/07/16 12:27:57;;;;;;;4.27;1.30;;;29.10;57.20;;;;;;5100521;28;20816;-75
2022/07/16 12:30:31;;;;;;;4.97;1.43;;;29.70;57.10;;;;;;5095844;28;20461;-75
2022/07/16 12:33:00;;;;;;;5.40;1.30;;;30.30;55.00;;;;;;5097589;28;20473;-75
2022/07/16 12:35:42;;;;;;;2.03;1.27;;;31.40;55.20;;;;;;5097710;28;20461;-76
2022/07/16 12:38:30;;;;;;;2.10;0.93;;;32.00;53.00;;;;;;5101224;28;20557;-75
2022/07/16 12:40:57;;;;;;;4.30;1.23;;;31.80;53.30;;;;;;5104896;28;20503;-75
2022/07/16 12:43:24;;;;;;;1.40;1.00;;;32.60;54.40;;;;;;5103419;28;20462;-75
2022/07/16 12:45:51;;;;;;;2.33;1.23;;;31.70;51.90;;;;;;5102891;28;20625;-75
2022/07/16 12:48:19;;;;;;;1.63;1.10;;;32.00;52.70;;;;;;5103194;28;20470;-75
2022/07/16 12:50:46;;;;;;;2.70;1.20;;;31.80;51.90;;;;;;5093953;28;20461;-75
2022/07/16 12:53:12;;;;;;;3.13;1.00;;;31.30;53.20;;;;;;5105171;27;20455;-75
2022/07/16 13:01:08;;;;;;;3.00;2.40;;;31.50;52.30;;;;;;5101641;28;21046;-75
2022/07/16 13:03:36;;;;;;;1.30;1.07;;;31.60;53.00;;;;;;5100980;28;20814;-75
2022/07/16 13:06:03;;;;;;;1.50;0.90;;;30.90;52.80;;;;;;5101594;28;20454;-75